Time;durP1;ratioP1;P1;durP2;ratioP2;P2;SDS_P1;SDS_P2;PMS_P1;PMS_P2;Temp;Humidity;BMP_temperature;BMP_pressure;BME280_temperature;BME280_humidity;BME280_pressure;Samples;Min_cycle;Max_cycle;Signal;HPM_P1;HPM_P2
2022/07/16 00:03:30;0.00;0.00;0.62;0.00;0.00;0.62;1.80;0.90;;;23.20;30.20;;;;;;2230145;62;20417;-62
2022/07/16 00:06:15;0.00;0.00;0.62;0.00;0.00;0.62;2.23;1.40;;;23.10;30.20;;;;;;2229270;62;20365;-62
2022/07/16 00:09:00;0.00;0.00;0.62;0.00;0.00;0.62;1.70;1.10;;;23.10;30.20;;;;;;2229971;62;20369;-62
2022/07/16 00:11:45;0.00;0.00;0.62;0.00;0.00;0.62;1.77;1.00;;;23.10;30.30;;;;;;2230190;62;20637;-62
2022/07/16 00:14:29;0.00;0.00;0.62;0.00;0.00;0.62;2.20;0.90;;;23.10;30.40;;;;;;2229346;62;20454;-62
2022/07/16 00:17:16;0.00;0.00;0.62;0.00;0.00;0.62;2.10;1.20;;;23.10;30.30;;;;;;2230005;62;20365;-62
2022/07/16 00:20:01;0.00;0.00;0.62;0.00;0.00;0.62;2.70;0.90;;;23.00;30.30;;;;;;2230209;62;20399;-62
2022/07/16 00:22:45;0.00;0.00;0.62;0.00;0.00;0.62;2.70;1.00;;;23.10;30.40;;;;;;2230116;62;20361;-62
2022/07/16 00:25:30;0.00;0.00;0.62;0.00;0.00;0.62;1.73;0.90;;;23.10;30.30;;;;;;2229957;62;20624;-62
2022/07/16 00:28:15;0.00;0.00;0.62;0.00;0.00;0.62;4.93;1.60;;;23.00;30.10;;;;;;2229107;62;20382;-62
2022/07/16 00:30:59;0.00;0.00;0.62;0.00;0.00;0.62;2.03;1.17;;;23.10;30.20;;;;;;2229983;62;20437;-61
2022/07/16 00:33:45;0.00;0.00;0.62;0.00;0.00;0.62;1.83;0.87;;;23.00;30.10;;;;;;2230223;62;20369;-62
2022/07/16 00:36:30;0.00;0.00;0.62;0.00;0.00;0.62;3.80;1.10;;;23.00;30.10;;;;;;2229305;62;20365;-60
2022/07/16 00:39:17;0.00;0.00;0.62;0.00;0.00;0.62;2.30;0.93;;;23.00;30.10;;;;;;2229772;62;20369;-62
2022/07/16 00:42:01;0.00;0.00;0.62;0.00;0.00;0.62;1.93;0.90;;;23.00;30.10;;;;;;2229908;62;20425;-61
2022/07/16 00:44:46;0.00;0.00;0.62;0.00;0.00;0.62;2.93;1.20;;;23.00;30.10;;;;;;2229513;62;20438;-61
2022/07/16 00:47:31;0.00;0.00;0.62;0.00;0.00;0.62;1.93;1.10;;;23.00;30.20;;;;;;2229791;62;20365;-62
2022/07/16 00:50:17;0.00;0.00;0.62;0.00;0.00;0.62;3.13;1.30;;;23.00;30.20;;;;;;2229522;62;20393;-62
2022/07/16 00:53:04;0.00;0.00;0.62;0.00;0.00;0.62;1.60;1.03;;;23.00;30.20;;;;;;2229868;62;20725;-61
2022/07/16 00:55:49;0.00;0.00;0.62;0.00;0.00;0.62;2.90;1.40;;;23.00;30.90;;;;;;2230285;62;20476;-61
2022/07/16 00:58:35;0.00;0.00;0.62;0.00;0.00;0.62;3.40;1.00;;;22.90;30.20;;;;;;2228997;62;20365;-61
2022/07/16 01:01:21;0.00;0.00;0.62;0.00;0.00;0.62;2.20;1.20;;;22.90;30.10;;;;;;2229906;62;20393;-61
2022/07/16 01:04:10;0.00;0.00;0.62;0.00;0.00;0.62;2.17;1.20;;;23.00;30.20;;;;;;2230248;62;20517;-62
2022/07/16 01:06:56;0.00;0.00;0.62;0.00;0.00;0.62;2.80;1.17;;;23.00;30.20;;;;;;2229264;62;20369;-61
2022/07/16 01:09:42;0.00;0.00;0.62;0.00;0.00;0.62;1.70;1.23;;;23.00;30.20;;;;;;2229972;62;20758;-59
2022/07/16 01:12:27;0.00;0.00;0.62;0.00;0.00;0.62;2.73;1.27;;;23.00;30.30;;;;;;2229506;62;20790;-59
2022/07/16 01:15:12;0.00;0.00;0.62;0.00;0.00;0.62;1.87;1.20;;;23.00;30.30;;;;;;2229709;62;20397;-61
2022/07/16 01:17:57;0.00;0.00;0.62;0.00;0.00;0.62;3.43;1.30;;;23.00;30.40;;;;;;2230079;62;20404;-61
2022/07/16 01:20:42;0.00;0.00;0.62;0.00;0.00;0.62;4.50;1.30;;;23.00;30.50;;;;;;2228989;62;20388;-61
2022/07/16 01:23:28;0.00;0.00;0.62;0.00;0.00;0.62;3.73;1.63;;;23.00;30.60;;;;;;2229925;62;20386;-62
2022/07/16 01:26:13;0.00;0.00;0.62;0.00;0.00;0.62;4.80;1.93;;;23.00;30.50;;;;;;2230230;62;20482;-60
2022/07/16 01:28:58;0.00;0.00;0.62;0.00;0.00;0.62;2.07;1.47;;;23.00;30.50;;;;;;2229029;62;20411;-61
2022/07/16 01:31:43;0.00;0.00;0.62;0.00;0.00;0.62;3.83;1.80;;;23.00;30.50;;;;;;2229809;62;20438;-61
2022/07/16 01:34:28;0.00;0.00;0.62;0.00;0.00;0.62;3.10;1.33;;;23.00;30.50;;;;;;2229333;62;20396;-59
2022/07/16 01:37:14;0.00;0.00;0.62;0.00;0.00;0.62;2.50;1.80;;;23.10;30.60;;;;;;2229973;62;20467;-62
2022/07/16 01:40:02;0.00;0.00;0.62;0.00;0.00;0.62;2.83;1.80;;;23.00;30.50;;;;;;2230106;62;20396;-61
2022/07/16 01:42:46;0.00;0.00;0.62;0.00;0.00;0.62;2.10;1.47;;;23.10;30.70;;;;;;2228751;62;20377;-61
2022/07/16 01:45:31;0.00;0.00;0.62;0.00;0.00;0.62;3.10;1.80;;;23.10;30.70;;;;;;2229245;62;20399;-62
2022/07/16 01:48:17;0.00;0.00;0.62;0.00;0.00;0.62;2.47;1.50;;;23.10;30.60;;;;;;2229704;62;20373;-62
2022/07/16 01:51:02;0.00;0.00;0.62;0.00;0.00;0.62;3.27;1.60;;;23.10;30.80;;;;;;2228734;62;20425;-61
2022/07/16 01:53:47;0.00;0.00;0.62;0.00;0.00;0.62;2.10;1.53;;;23.10;30.80;;;;;;2229378;62;20379;-61
2022/07/16 01:56:33;0.00;0.00;0.62;0.00;0.00;0.62;2.10;1.40;;;23.10;30.90;;;;;;2229083;62;20445;-61
2022/07/16 01:59:18;0.00;0.00;0.62;0.00;0.00;0.62;2.60;1.70;;;23.10;30.90;;;;;;2229524;62;20388;-61
2022/07/16 02:02:03;0.00;0.00;0.62;0.00;0.00;0.62;2.00;1.40;;;23.10;30.90;;;;;;2229723;62;20385;-61
2022/07/16 02:04:48;0.00;0.00;0.62;0.00;0.00;0.62;2.87;1.77;;;23.10;30.90;;;;;;2228622;62;20381;-61
2022/07/16 02:07:32;0.00;0.00;0.62;0.00;0.00;0.62;2.73;1.30;;;23.20;30.90;;;;;;2229345;62;20368;-61
2022/07/16 02:10:18;0.00;0.00;0.62;0.00;0.00;0.62;2.90;1.47;;;23.20;30.90;;;;;;2229677;62;20434;-62
2022/07/16 02:13:05;0.00;0.00;0.62;0.00;0.00;0.62;2.13;1.57;;;23.20;30.90;;;;;;2228675;62;20589;-61
2022/07/16 02:15:49;0.00;0.00;0.62;0.00;0.00;0.62;2.50;2.00;;;23.20;30.90;;;;;;2229348;62;20437;-62
2022/07/16 02:18:35;0.00;0.00;0.62;0.00;0.00;0.62;3.60;1.50;;;23.20;30.90;;;;;;2229195;62;20391;-62
2022/07/16 02:21:19;0.00;0.00;0.62;0.00;0.00;0.62;2.50;1.67;;;23.20;30.90;;;;;;2229317;62;20789;-61
2022/07/16 02:24:05;0.00;0.00;0.62;0.00;0.00;0.62;2.97;1.53;;;23.20;30.90;;;;;;2229387;62;20365;-61
2022/07/16 02:26:50;0.00;0.00;0.62;0.00;0.00;0.62;5.17;1.90;;;23.30;31.00;;;;;;2228603;62;20369;-61
2022/07/16 02:29:36;0.00;0.00;0.62;0.00;0.00;0.62;3.60;2.40;;;23.30;30.90;;;;;;2229332;62;20699;-61
2022/07/16 02:32:21;0.00;0.00;0.62;0.00;0.00;0.62;3.87;2.13;;;23.30;30.90;;;;;;2229699;62;20374;-61
2022/07/16 02:35:07;0.00;0.00;0.62;0.00;0.00;0.62;2.03;1.47;;;23.30;30.90;;;;;;2228215;62;20404;-61
2022/07/16 02:37:52;0.00;0.00;0.62;0.00;0.00;0.62;2.10;1.60;;;23.30;30.80;;;;;;2229209;62;20377;-61
2022/07/16 02:40:37;0.00;0.00;0.62;0.00;0.00;0.62;3.13;2.03;;;23.40;30.90;;;;;;2229719;62;20380;-61
2022/07/16 02:43:22;0.00;0.00;0.62;0.00;0.00;0.62;2.33;1.60;;;23.40;30.80;;;;;;2210388;62;1199892;-61
2022/07/16 02:46:08;0.00;0.00;0.62;0.00;0.00;0.62;2.50;1.70;;;23.40;31.60;;;;;;2229525;62;20615;-61
2022/07/16 02:48:53;0.00;0.00;0.62;0.00;0.00;0.62;2.37;1.70;;;23.40;30.90;;;;;;2228723;62;20373;-61
2022/07/16 02:51:37;0.00;0.00;0.62;0.00;0.00;0.62;2.83;1.90;;;23.40;30.80;;;;;;2229656;62;20377;-60
2022/07/16 02:54:22;0.00;0.00;0.62;0.00;0.00;0.62;2.33;1.80;;;23.40;30.80;;;;;;2229882;62;20798;-61
2022/07/16 02:57:07;0.00;0.00;0.62;0.00;0.00;0.62;3.80;1.67;;;23.40;31.40;;;;;;2228797;62;20385;-61
2022/07/16 02:59:51;0.00;0.00;0.62;0.00;0.00;0.62;4.10;1.90;;;23.40;30.70;;;;;;2230095;62;20373;-61
2022/07/16 03:02:38;0.00;0.00;0.62;0.00;0.00;0.62;2.87;1.67;;;23.40;30.60;;;;;;2230510;62;20578;-61
2022/07/16 03:05:23;0.00;0.00;0.62;0.00;0.00;0.62;2.50;1.83;;;23.50;30.70;;;;;;2229739;62;20394;-61
2022/07/16 03:08:08;0.00;0.00;0.62;0.00;0.00;0.62;2.83;2.23;;;23.50;30.60;;;;;;2229743;62;20365;-61
2022/07/16 03:10:53;0.00;0.00;0.62;0.00;0.00;0.62;2.30;1.77;;;23.50;30.60;;;;;;2229651;62;20465;-61
2022/07/16 03:13:37;0.00;0.00;0.62;0.00;0.00;0.62;2.10;1.37;;;23.50;30.50;;;;;;2230134;62;20409;-62
2022/07/16 03:16:22;0.00;0.00;0.62;0.00;0.00;0.62;2.80;2.00;;;23.50;30.40;;;;;;2230555;62;20425;-60
2022/07/16 03:19:08;0.00;0.00;0.62;0.00;0.00;0.62;2.33;1.67;;;23.50;30.40;;;;;;2229317;62;20369;-62
2022/07/16 03:21:53;0.00;0.00;0.62;0.00;0.00;0.62;2.80;1.83;;;23.50;30.30;;;;;;2230018;62;20507;-61
2022/07/16 03:24:37;0.00;0.00;0.62;0.00;0.00;0.62;3.90;1.60;;;23.50;30.30;;;;;;2230553;62;20401;-61
2022/07/16 03:27:22;0.00;0.00;0.62;0.00;0.00;0.62;2.67;1.70;;;23.50;30.20;;;;;;2229343;62;20395;-61
2022/07/16 03:30:08;0.00;0.00;0.62;0.00;0.00;0.62;3.40;2.30;;;23.50;30.20;;;;;;2230174;62;20384;-61
2022/07/16 03:32:54;0.00;0.00;0.62;0.00;0.00;0.62;3.03;1.90;;;23.60;30.30;;;;;;2229843;62;20567;-61
2022/07/16 03:35:40;0.00;0.00;0.62;0.00;0.00;0.62;2.10;1.60;;;23.60;30.30;;;;;;2230308;62;20420;-61
2022/07/16 03:41:29;0.00;0.00;0.62;0.00;0.00;0.62;1.70;1.30;;;23.50;30.20;;;;;;2229262;62;20433;-62
2022/07/16 03:44:14;0.00;0.00;0.62;0.00;0.00;0.62;3.10;1.70;;;23.60;30.30;;;;;;2229988;62;20437;-61
2022/07/16 03:46:59;0.00;0.00;0.62;0.00;0.00;0.62;2.90;1.90;;;23.50;30.20;;;;;;2230494;62;20369;-61
2022/07/16 03:49:44;0.00;0.00;0.62;0.00;0.00;0.62;2.57;1.70;;;23.60;30.30;;;;;;2229609;62;20397;-61
2022/07/16 03:52:29;0.00;0.00;0.62;0.00;0.00;0.62;6.40;2.50;;;23.50;30.20;;;;;;2230174;62;20369;-61
2022/07/16 03:55:15;0.00;0.00;0.62;0.00;0.00;0.62;2.00;1.63;;;23.60;30.30;;;;;;2229605;62;20403;-61
2022/07/16 03:58:00;0.00;0.00;0.62;0.00;0.00;0.62;2.90;1.97;;;23.60;30.30;;;;;;2230059;62;20414;-61
2022/07/16 04:00:44;0.00;0.00;0.62;0.00;0.00;0.62;2.40;1.50;;;23.60;30.30;;;;;;2230462;62;20433;-61
2022/07/16 04:03:29;0.00;0.00;0.62;0.00;0.00;0.62;2.00;1.70;;;23.60;30.40;;;;;;2229128;62;20493;-61
2022/07/16 04:06:13;0.00;0.00;0.62;0.00;0.00;0.62;3.43;1.77;;;23.60;30.30;;;;;;2230110;62;20361;-61
2022/07/16 04:08:59;0.00;0.00;0.62;0.00;0.00;0.62;1.90;1.30;;;23.50;30.30;;;;;;2230225;62;20365;-61
2022/07/16 04:11:44;0.00;0.00;0.62;0.00;0.00;0.62;2.90;1.60;;;23.50;30.30;;;;;;2229358;62;20441;-61
2022/07/16 04:14:29;0.00;0.00;0.62;0.00;0.00;0.62;2.70;2.17;;;23.50;30.30;;;;;;2230038;62;20628;-61
2022/07/16 04:17:13;0.00;0.00;0.62;0.00;0.00;0.62;2.40;2.20;;;23.50;30.40;;;;;;2229553;62;20368;-61
2022/07/16 04:19:58;0.00;0.00;0.62;0.00;0.00;0.62;3.20;1.60;;;23.50;30.50;;;;;;2230308;62;20409;-61
2022/07/16 04:22:43;0.00;0.00;0.62;0.00;0.00;0.62;2.40;1.87;;;23.50;30.60;;;;;;2230298;62;20413;-61
2022/07/16 04:25:29;0.00;0.00;0.62;0.00;0.00;0.62;2.80;1.53;;;23.50;30.60;;;;;;2229207;62;20365;-61
2022/07/16 04:28:14;0.00;0.00;0.62;0.00;0.00;0.62;2.27;1.60;;;23.50;30.80;;;;;;2229918;62;20373;-61
2022/07/16 04:30:59;0.00;0.00;0.62;0.00;0.00;0.62;3.80;1.97;;;23.50;30.90;;;;;;2230229;62;20589;-61
2022/07/16 04:33:43;0.00;0.00;0.62;0.00;0.00;0.62;2.53;1.90;;;23.50;31.00;;;;;;2229320;62;20365;-61
2022/07/16 04:36:28;0.00;0.00;0.62;0.00;0.00;0.62;2.27;1.83;;;23.50;31.30;;;;;;2229872;62;20424;-61
2022/07/16 04:39:14;0.00;0.00;0.62;0.00;0.00;0.62;2.60;1.80;;;23.50;31.70;;;;;;2229755;62;20369;-61
2022/07/16 04:41:59;0.00;0.00;0.62;0.00;0.00;0.62;3.13;1.70;;;23.50;32.10;;;;;;2229608;62;20757;-61
2022/07/16 04:44:44;0.00;0.00;0.62;0.00;0.00;0.62;3.57;2.20;;;23.50;32.20;;;;;;2229957;62;20373;-60
2022/07/16 04:47:29;0.00;0.00;0.62;0.00;0.00;0.62;3.33;2.13;;;23.40;32.30;;;;;;2229030;62;20365;-61
2022/07/16 04:50:14;0.00;0.00;0.62;0.00;0.00;0.62;2.33;1.80;;;23.50;32.50;;;;;;2229895;62;20465;-61
2022/07/16 04:52:58;0.00;0.00;0.62;0.00;0.00;0.62;2.80;2.10;;;23.50;32.70;;;;;;2230163;62;20369;-61
2022/07/16 04:55:43;0.00;0.00;0.62;0.00;0.00;0.62;4.70;2.17;;;23.40;32.70;;;;;;2229233;62;20396;-61
2022/07/16 04:58:29;0.00;0.00;0.62;0.00;0.00;0.62;3.40;2.60;;;23.40;33.00;;;;;;2229754;62;20452;-60
2022/07/16 05:01:14;0.00;0.00;0.62;0.00;0.00;0.62;2.20;1.43;;;23.40;33.20;;;;;;2230068;62;20409;-61
2022/07/16 05:03:58;0.00;0.00;0.62;0.00;0.00;0.62;2.40;2.00;;;23.40;33.20;;;;;;2229922;62;20634;-62
2022/07/16 05:06:43;0.00;0.00;0.62;0.00;0.00;0.62;3.60;3.03;;;23.40;33.50;;;;;;2229887;62;20361;-61
2022/07/16 05:09:28;0.00;0.00;0.62;0.00;0.00;0.62;2.30;1.93;;;23.40;33.80;;;;;;2229036;62;20369;-61
2022/07/16 05:12:13;0.00;0.00;0.62;0.00;0.00;0.62;2.33;2.13;;;23.40;33.70;;;;;;2229880;62;20745;-61
2022/07/16 05:14:59;0.00;0.00;0.62;0.00;0.00;0.62;2.70;1.97;;;23.40;33.80;;;;;;2230154;62;20802;-61
2022/07/16 05:17:44;0.00;0.00;0.62;0.00;0.00;0.62;3.70;2.57;;;23.40;33.80;;;;;;2229090;62;20545;-60
2022/07/16 05:20:28;0.00;0.00;0.62;0.00;0.00;0.62;2.30;2.03;;;23.40;34.10;;;;;;2229589;62;20605;-60
2022/07/16 05:23:13;0.00;0.00;0.62;0.00;0.00;0.62;3.20;2.13;;;23.40;34.10;;;;;;2230265;62;20410;-61
2022/07/16 05:25:58;0.00;0.00;0.62;0.00;0.00;0.62;3.63;2.87;;;23.40;34.20;;;;;;2229384;62;20731;-61
2022/07/16 05:28:42;0.00;0.00;0.62;0.00;0.00;0.62;3.20;2.40;;;23.40;34.30;;;;;;2229734;62;20369;-59
2022/07/16 05:31:28;0.00;0.00;0.62;0.00;0.00;0.62;3.50;2.40;;;23.40;34.30;;;;;;2229587;62;20436;-62
2022/07/16 05:34:13;0.00;0.00;0.62;0.00;0.00;0.62;2.97;2.13;;;23.40;34.50;;;;;;2229897;62;20373;-59
2022/07/16 05:36:58;0.00;0.00;0.62;0.00;0.00;0.62;2.67;2.27;;;23.40;34.80;;;;;;2230313;62;20365;-61
2022/07/16 05:39:42;0.00;0.00;0.62;0.00;0.00;0.62;2.90;2.00;;;23.40;35.20;;;;;;2229076;62;20418;-61
2022/07/16 05:42:27;0.00;0.00;0.62;0.00;0.00;0.62;2.63;2.00;;;23.40;35.80;;;;;;2229667;62;20601;-61
2022/07/16 05:45:12;0.00;0.00;0.62;0.00;0.00;0.62;3.30;2.23;;;23.30;35.30;;;;;;2230004;62;20369;-61
2022/07/16 05:47:58;0.00;0.00;0.62;0.00;0.00;0.62;4.60;2.60;;;23.30;35.30;;;;;;2228939;62;20369;-60
2022/07/16 05:50:43;0.00;0.00;0.62;0.00;0.00;0.62;3.57;2.80;;;23.30;35.40;;;;;;2229740;62;20789;-61
2022/07/16 05:53:27;0.00;0.00;0.62;0.00;0.00;0.62;3.30;2.37;;;23.30;35.50;;;;;;2229323;62;20373;-61
2022/07/16 05:56:12;0.00;0.00;0.62;0.00;0.00;0.62;3.03;2.10;;;23.30;35.80;;;;;;2230071;62;20400;-61
2022/07/16 05:59:02;0.00;0.00;0.62;0.00;0.00;0.62;4.13;2.20;;;23.30;36.00;;;;;;2230091;62;20414;-59
2022/07/16 06:01:46;0.00;0.00;0.62;0.00;0.00;0.62;2.17;1.83;;;23.20;36.00;;;;;;2228838;62;20426;-59
2022/07/16 06:04:32;0.00;0.00;0.62;0.00;0.00;0.62;2.57;2.20;;;23.30;36.00;;;;;;2229609;62;20373;-61
2022/07/16 06:07:18;0.00;0.00;0.62;0.00;0.00;0.62;3.60;2.63;;;23.30;36.10;;;;;;2230018;62;20394;-61
2022/07/16 06:10:04;0.00;0.00;0.62;0.00;0.00;0.62;3.53;2.43;;;23.20;36.00;;;;;;2229120;62;20409;-60
2022/07/16 06:12:49;0.00;0.00;0.62;0.00;0.00;0.62;2.23;1.77;;;23.30;36.00;;;;;;2229303;62;20373;-60
2022/07/16 06:15:34;0.00;0.00;0.62;0.00;0.00;0.62;2.40;2.20;;;23.30;36.00;;;;;;2229415;62;20769;-61
2022/07/16 06:18:18;0.00;0.00;0.62;0.00;0.00;0.62;3.30;2.37;;;23.20;36.00;;;;;;2229645;62;20587;-61
2022/07/16 06:21:04;0.00;0.00;0.62;0.00;0.00;0.62;2.57;2.10;;;23.30;36.40;;;;;;2230042;62;20457;-60
2022/07/16 06:23:50;0.00;0.00;0.62;0.00;0.00;0.62;3.60;2.40;;;23.20;36.40;;;;;;2228859;62;20599;-61
2022/07/16 06:26:34;0.00;0.00;0.62;0.00;0.00;0.62;2.87;2.00;;;23.20;36.50;;;;;;2229591;62;20746;-61
2022/07/16 06:29:19;0.00;0.00;0.62;0.00;0.00;0.62;1.90;1.70;;;23.20;36.50;;;;;;2229924;62;20366;-61
2022/07/16 06:32:05;0.00;0.00;0.62;0.00;0.00;0.62;4.17;1.80;;;23.20;36.60;;;;;;2228928;62;20389;-60
2022/07/16 06:34:49;0.00;0.00;0.62;0.00;0.00;0.62;4.07;1.80;;;23.20;36.60;;;;;;2229603;62;20623;-60
2022/07/16 06:37:35;0.00;0.00;0.62;0.00;0.00;0.62;4.10;1.97;;;23.20;36.60;;;;;;2229566;62;20966;-61
2022/07/16 06:40:20;0.00;0.00;0.62;0.00;0.00;0.62;2.87;2.10;;;23.20;36.50;;;;;;2229515;62;20393;-61
2022/07/16 06:43:05;0.00;0.00;0.62;0.00;0.00;0.62;2.83;2.10;;;23.20;36.60;;;;;;2229732;62;20446;-61
2022/07/16 06:45:51;0.00;0.00;0.62;0.00;0.00;0.62;2.90;2.10;;;23.20;36.60;;;;;;2228747;62;20369;-60
2022/07/16 06:48:36;0.00;0.00;0.62;0.00;0.00;0.62;2.73;1.93;;;23.20;36.60;;;;;;2229404;62;20438;-63
2022/07/16 06:51:20;0.00;0.00;0.62;0.00;0.00;0.62;3.00;1.93;;;23.20;36.60;;;;;;2229876;62;20635;-65
2022/07/16 06:54:07;0.00;0.00;0.62;0.00;0.00;0.62;2.80;1.80;;;23.20;36.60;;;;;;2228953;62;20973;-64
2022/07/16 06:56:51;0.00;0.00;0.62;0.00;0.00;0.62;2.63;1.97;;;23.20;36.80;;;;;;2229608;62;20397;-62
2022/07/16 06:59:36;0.00;0.00;0.62;0.00;0.00;0.62;2.97;2.23;;;23.30;36.80;;;;;;2229701;62;20392;-60
2022/07/16 07:02:20;0.00;0.00;0.62;0.00;0.00;0.62;3.30;1.80;;;23.30;36.70;;;;;;2229015;62;20373;-63
2022/07/16 07:05:07;0.00;0.00;0.62;0.00;0.00;0.62;2.77;1.73;;;23.30;36.60;;;;;;2229589;62;20389;-62
2022/07/16 07:07:52;0.00;0.00;0.62;0.00;0.00;0.62;2.03;1.53;;;23.30;36.60;;;;;;2228591;62;20426;-65
2022/07/16 07:10:38;0.00;0.00;0.62;0.00;0.00;0.62;2.00;1.63;;;23.30;36.60;;;;;;2229475;62;20903;-65
2022/07/16 07:13:23;0.00;0.00;0.62;0.00;0.00;0.62;1.90;1.53;;;23.30;36.60;;;;;;2229853;62;20386;-63
2022/07/16 07:16:08;0.00;0.00;0.62;0.00;0.00;0.62;2.33;1.70;;;23.30;36.50;;;;;;2228681;62;20418;-62
2022/07/16 07:18:52;0.00;0.00;0.62;0.00;0.00;0.62;3.27;1.80;;;23.30;36.50;;;;;;2230140;62;20376;-62
2022/07/16 07:21:37;0.00;0.00;0.62;0.00;0.00;0.62;1.93;1.60;;;23.30;36.50;;;;;;2241591;59;20416;-62
2022/07/16 07:24:22;0.00;0.00;0.62;0.00;0.00;0.62;2.10;1.60;;;23.40;36.50;;;;;;2229306;62;20377;-64
2022/07/16 07:27:07;0.00;0.00;0.62;0.00;0.00;0.62;4.10;2.00;;;23.40;36.40;;;;;;2229353;62;20356;-62
2022/07/16 07:29:52;0.00;0.00;0.62;0.00;0.00;0.62;3.10;1.60;;;23.40;36.40;;;;;;2229301;62;20373;-66
2022/07/16 07:32:37;0.00;0.00;0.62;0.00;0.00;0.62;2.47;1.80;;;23.40;36.30;;;;;;2229606;62;20392;-64
2022/07/16 07:35:22;0.00;0.00;0.62;0.00;0.00;0.62;2.77;1.60;;;23.40;36.30;;;;;;2229875;62;20389;-62
2022/07/16 07:38:07;0.00;0.00;0.62;0.00;0.00;0.62;2.37;1.80;;;23.50;36.30;;;;;;2229107;62;20413;-62
2022/07/16 07:40:52;0.00;0.00;0.62;0.00;0.00;0.62;2.43;1.70;;;23.50;36.20;;;;;;2229547;62;20502;-62
2022/07/16 07:43:38;0.00;0.00;0.62;0.00;0.00;0.62;2.30;1.77;;;23.50;36.20;;;;;;2230009;62;20758;-61
2022/07/16 07:46:23;0.00;0.00;0.62;0.00;0.00;0.62;1.70;1.60;;;23.50;36.10;;;;;;2229975;62;20369;-60
2022/07/16 07:49:10;0.00;0.00;0.62;0.00;0.00;0.62;2.67;1.60;;;23.60;36.20;;;;;;2230100;62;20365;-63
2022/07/16 07:51:55;0.00;0.00;0.62;0.00;0.00;0.62;1.90;1.53;;;23.60;36.10;;;;;;2229943;62;20446;-63
2022/07/16 07:54:40;0.00;0.00;0.62;0.00;0.00;0.62;2.00;1.50;;;23.60;36.80;;;;;;2230391;62;20393;-62
2022/07/16 07:57:25;0.00;0.00;0.62;0.00;0.00;0.62;2.20;1.80;;;23.60;36.00;;;;;;2230352;62;20368;-63
2022/07/16 08:00:12;0.00;0.00;0.62;0.00;0.00;0.62;2.47;1.77;;;23.60;35.90;;;;;;2229793;62;20405;-63
2022/07/16 08:02:57;0.00;0.00;0.62;0.00;0.00;0.62;1.90;1.57;;;23.70;36.00;;;;;;2230028;62;20369;-60
2022/07/16 08:05:42;0.00;0.00;0.62;0.00;0.00;0.62;2.97;1.93;;;23.70;35.90;;;;;;2230257;62;20365;-63
2022/07/16 08:08:26;0.00;0.00;0.62;0.00;0.00;0.62;2.70;1.83;;;23.70;35.90;;;;;;2229334;62;20421;-65
2022/07/16 08:11:11;0.00;0.00;0.62;0.00;0.00;0.62;2.50;1.90;;;23.70;35.80;;;;;;2230015;62;20406;-63
2022/07/16 08:13:56;0.00;0.00;0.62;0.00;0.00;0.62;2.10;1.73;;;23.70;35.80;;;;;;2229858;62;20707;-63
2022/07/16 08:16:43;0.00;0.00;0.62;0.00;0.00;0.62;2.40;1.63;;;23.80;35.80;;;;;;2230326;62;20393;-62
2022/07/16 08:19:27;0.00;0.00;0.62;0.00;0.00;0.62;2.90;1.87;;;23.80;35.60;;;;;;2230276;62;20754;-62
2022/07/16 08:22:12;0.00;0.00;0.62;0.00;0.00;0.62;2.97;2.10;;;23.80;35.60;;;;;;2229794;62;20361;-63
2022/07/16 08:28:01;0.00;0.00;0.62;0.00;0.00;0.62;3.50;1.63;;;23.90;35.40;;;;;;2230356;62;20793;-63
2022/07/16 08:30:46;0.00;0.00;0.62;0.00;0.00;0.62;2.33;1.47;;;23.90;35.30;;;;;;2229839;62;20409;-64
2022/07/16 08:33:32;0.00;0.00;0.62;0.00;0.00;0.62;4.07;1.67;;;23.90;35.20;;;;;;2229661;62;20406;-63
2022/07/16 08:36:17;0.00;0.00;0.62;0.00;0.00;0.62;3.30;2.20;;;23.90;35.20;;;;;;2252390;62;20405;-64
2022/07/16 08:39:02;0.00;0.00;0.62;0.00;0.00;0.62;3.13;1.70;;;24.00;35.20;;;;;;2230140;62;20364;-61
2022/07/16 08:41:49;0.00;0.00;0.62;0.00;0.00;0.62;2.83;1.60;;;24.00;35.20;;;;;;2230404;62;20419;-63
2022/07/16 08:44:36;0.00;0.00;0.62;0.00;0.00;0.62;4.40;1.67;;;24.00;35.10;;;;;;2229934;62;20770;-62
2022/07/16 08:47:21;0.00;0.00;0.62;0.00;0.00;0.62;3.43;2.23;;;24.00;35.00;;;;;;2229861;62;20378;-62
2022/07/16 08:50:13;0.00;0.00;0.62;0.00;0.00;0.62;3.03;1.47;;;24.10;34.90;;;;;;2230461;62;20558;-61
2022/07/16 08:52:59;0.00;0.00;0.62;0.00;0.00;0.62;1.70;1.20;;;24.10;34.60;;;;;;2229691;62;20718;-61
2022/07/16 08:55:44;0.00;0.00;0.62;0.00;0.00;0.62;2.00;1.37;;;24.10;34.50;;;;;;2229369;62;20425;-65
2022/07/16 08:58:31;0.00;0.00;0.62;0.00;0.00;0.62;4.70;1.80;;;24.10;34.50;;;;;;2229786;62;20394;-66
2022/07/16 09:01:16;0.00;0.00;0.62;0.00;0.00;0.62;4.50;2.27;;;24.20;34.40;;;;;;2230325;62;20737;-64
2022/07/16 09:04:03;0.00;0.00;0.62;0.00;0.00;0.62;6.80;1.50;;;24.20;34.20;;;;;;2230643;62;20409;-65
2022/07/16 09:06:49;0.00;0.00;0.62;0.00;0.00;0.62;2.30;1.50;;;24.20;34.10;;;;;;2229784;62;20397;-64
2022/07/16 09:09:34;0.00;0.00;0.62;0.00;0.00;0.62;3.50;1.53;;;24.20;33.90;;;;;;2230128;62;20381;-62
2022/07/16 09:12:34;0.00;0.00;0.62;0.00;0.00;0.62;3.43;1.87;;;24.30;34.00;;;;;;2230478;62;20401;-65
2022/07/16 09:15:26;0.00;0.00;0.62;0.00;0.00;0.62;1.70;1.20;;;24.30;33.90;;;;;;2229956;62;20445;-64
2022/07/16 09:18:18;0.00;0.00;0.62;0.00;0.00;0.62;2.07;1.27;;;24.30;33.50;;;;;;2230207;62;20437;-65
2022/07/16 09:21:03;0.00;0.00;0.62;0.00;0.00;0.62;3.23;2.07;;;24.30;33.10;;;;;;2229815;62;20400;-63
2022/07/16 09:23:49;0.00;0.00;0.62;0.00;0.00;0.62;3.00;1.60;;;24.30;32.90;;;;;;2230037;62;20402;-65
2022/07/16 09:26:34;0.00;0.00;0.62;0.00;0.00;0.62;1.97;1.27;;;24.40;32.70;;;;;;2230387;62;20401;-66
2022/07/16 09:29:19;0.00;0.00;0.62;0.00;0.00;0.62;1.97;1.13;;;24.40;32.10;;;;;;2229545;62;20432;-67
2022/07/16 09:32:04;0.00;0.00;0.62;0.00;0.00;0.62;2.03;1.07;;;24.40;32.10;;;;;;2229969;62;20420;-65
2022/07/16 09:35:02;0.00;0.00;0.62;0.00;0.00;0.62;6.30;1.73;;;24.40;32.10;;;;;;2230258;62;20457;-67
2022/07/16 09:37:49;0.00;0.00;0.62;0.00;0.00;0.62;6.03;1.70;;;24.40;32.00;;;;;;2230195;62;20362;-66
2022/07/16 09:40:38;0.00;0.00;0.62;0.00;0.00;0.62;4.27;1.60;;;24.40;31.90;;;;;;2229825;62;20450;-64
2022/07/16 09:43:24;0.00;0.00;0.62;0.00;0.00;0.62;2.97;1.40;;;24.30;31.40;;;;;;2229311;62;20425;-66
2022/07/16 09:46:15;0.00;0.00;0.62;0.00;0.00;0.62;3.13;1.23;;;24.30;31.30;;;;;;2229923;62;20778;-65
2022/07/16 09:49:00;0.00;0.00;0.62;0.00;0.00;0.62;3.83;1.80;;;24.30;31.30;;;;;;2229996;62;20701;-65
2022/07/16 09:51:45;0.00;0.00;0.62;0.00;0.00;0.62;2.30;1.30;;;24.30;31.20;;;;;;2229495;62;20396;-66
2022/07/16 09:54:32;0.00;0.00;0.62;0.00;0.00;0.62;2.83;1.57;;;24.30;30.90;;;;;;2230016;62;20365;-64
2022/07/16 09:57:20;0.00;0.00;0.62;0.00;0.00;0.62;3.57;1.30;;;24.30;30.60;;;;;;2229739;62;20402;-64
2022/07/16 10:00:07;0.00;0.00;0.62;0.00;0.00;0.62;3.77;1.97;;;24.30;30.60;;;;;;2230178;62;20448;-66
2022/07/16 10:02:58;0.00;0.00;0.62;0.00;0.00;0.62;2.80;1.33;;;24.30;30.40;;;;;;2230153;62;20381;-66
2022/07/16 10:05:43;0.00;0.00;0.62;0.00;0.00;0.62;3.10;1.23;;;24.30;30.50;;;;;;2229457;62;20709;-66
2022/07/16 10:08:28;0.00;0.00;0.62;0.00;0.00;0.62;3.23;1.47;;;24.30;30.50;;;;;;2229697;62;20729;-65
2022/07/16 10:11:13;0.00;0.00;0.62;0.00;0.00;0.62;4.93;1.60;;;24.30;30.40;;;;;;2230008;62;20514;-65
2022/07/16 10:13:59;0.00;0.00;0.62;0.00;0.00;0.62;3.13;1.40;;;24.30;30.40;;;;;;2229441;62;20426;-64
2022/07/16 10:16:48;0.00;0.00;0.62;0.00;0.00;0.62;5.13;1.90;;;24.30;30.30;;;;;;2229829;62;20400;-66
2022/07/16 10:19:36;0.00;0.00;0.62;0.00;0.00;0.62;6.33;1.17;;;24.30;30.40;;;;;;2229597;62;20488;-65
2022/07/16 10:22:28;0.00;0.00;0.62;0.00;0.00;0.62;3.90;1.97;;;24.30;30.20;;;;;;2229703;62;20365;-63
2022/07/16 10:25:17;0.00;0.00;0.62;0.00;0.00;0.62;2.27;1.20;;;24.30;30.00;;;;;;2230069;62;20409;-64
2022/07/16 10:28:02;0.00;0.00;0.62;0.00;0.00;0.62;3.90;1.47;;;24.40;30.10;;;;;;2229229;62;20365;-62
2022/07/16 10:30:48;0.00;0.00;0.62;0.00;0.00;0.62;3.80;1.33;;;24.40;30.00;;;;;;2229894;62;20775;-65
2022/07/16 10:33:33;0.00;0.00;0.62;0.00;0.00;0.62;2.40;1.20;;;24.40;29.90;;;;;;2229984;62;20590;-67
2022/07/16 10:36:18;0.00;0.00;0.62;0.00;0.00;0.62;3.57;1.20;;;24.40;29.80;;;;;;2229490;62;20437;-66
2022/07/16 10:39:05;0.00;0.00;0.62;0.00;0.00;0.62;1.83;0.97;;;24.40;29.70;;;;;;2229665;62;20369;-66
2022/07/16 10:41:52;0.00;0.00;0.62;0.00;0.00;0.62;3.10;1.10;;;24.50;29.70;;;;;;2229602;62;20871;-62
2022/07/16 10:44:46;0.00;0.00;0.62;0.00;0.00;0.62;3.70;1.20;;;24.50;29.40;;;;;;2230199;62;20357;-62
2022/07/16 10:47:50;0.00;0.00;0.62;0.00;0.00;0.62;3.63;1.27;;;24.50;29.30;;;;;;2229739;62;20358;-60
2022/07/16 10:50:35;0.00;0.00;0.62;0.00;0.00;0.62;1.83;1.00;;;24.50;29.10;;;;;;2229403;62;20485;-59
2022/07/16 10:53:20;0.00;0.00;0.62;0.00;0.00;0.62;2.30;1.17;;;24.50;28.90;;;;;;2229646;62;20406;-62
2022/07/16 10:56:38;0.00;0.00;0.62;0.00;0.00;0.62;2.93;1.10;;;24.50;28.60;;;;;;2229633;62;20641;-60
2022/07/16 10:59:25;0.00;0.00;0.62;0.00;0.00;0.62;4.00;1.20;;;24.60;28.60;;;;;;2229982;62;20487;-62
2022/07/16 11:02:14;0.00;0.00;0.62;0.00;0.00;0.62;2.47;1.40;;;24.60;28.20;;;;;;2229829;62;20421;-62